Time;durP1;ratioP1;P1;durP2;ratioP2;P2;SDS_P1;SDS_P2;PMS_P1;PMS_P2;Temp;Humidity;BMP_temperature;BMP_pressure;BME280_temperature;BME280_humidity;BME280_pressure;Samples;Min_cycle;Max_cycle;Signal;HPM_P1;HPM_P2
2022/10/17 00:01:02;;;;;;;10.25;5.35;;;12.90;99.90;;;;;;5091561;28;20080;-56
2022/10/17 00:03:27;;;;;;;9.35;5.72;;;12.90;99.90;;;;;;5095293;28;20024;-66
2022/10/17 00:05:53;;;;;;;7.63;5.47;;;12.80;99.90;;;;;;5091952;28;20342;-67
2022/10/17 00:08:19;;;;;;;11.18;5.68;;;12.80;99.90;;;;;;5092519;28;20031;-64
2022/10/17 00:10:53;;;;;;;8.80;5.65;;;12.80;99.90;;;;;;5093382;28;20032;-66
2022/10/17 00:13:19;;;;;;;6.82;4.90;;;12.80;99.90;;;;;;5073430;28;20020;-55
2022/10/17 00:15:44;;;;;;;10.27;5.32;;;12.80;99.90;;;;;;5072457;28;20051;-56
2022/10/17 00:18:10;;;;;;;9.40;5.47;;;12.80;99.90;;;;;;5072719;28;20024;-57
2022/10/17 00:20:36;;;;;;;9.23;5.40;;;12.70;99.90;;;;;;5071705;28;20116;-56
2022/10/17 00:23:01;;;;;;;7.63;4.90;;;12.70;99.90;;;;;;5073730;28;20033;-53
2022/10/17 00:25:27;;;;;;;8.98;5.38;;;12.70;99.90;;;;;;5072489;28;20083;-56
2022/10/17 00:27:52;;;;;;;9.20;5.35;;;12.70;99.90;;;;;;5088148;28;20441;-56
2022/10/17 00:30:18;;;;;;;7.05;5.10;;;12.70;99.90;;;;;;5092789;28;20384;-55
2022/10/17 00:32:44;;;;;;;9.48;5.88;;;12.60;99.90;;;;;;5079497;28;20077;-54
2022/10/17 00:35:10;;;;;;;10.00;5.88;;;12.70;99.90;;;;;;5070396;28;20093;-54
2022/10/17 00:37:35;;;;;;;8.65;5.55;;;12.60;99.90;;;;;;5071988;28;20025;-58
2022/10/17 00:40:01;;;;;;;11.00;5.40;;;12.60;99.90;;;;;;5071938;28;20044;-57
2022/10/17 00:42:27;;;;;;;8.73;5.47;;;12.60;99.90;;;;;;5073292;28;20033;-56
2022/10/17 00:45:20;;;;;;;8.35;5.40;;;12.60;99.90;;;;;;5072005;28;20021;-53
2022/10/17 00:47:50;;;;;;;8.15;4.53;;;12.60;99.90;;;;;;5088727;28;20099;-51
2022/10/17 00:50:17;;;;;;;8.02;5.30;;;12.60;99.90;;;;;;5091436;28;20035;-54
2022/10/17 00:52:43;;;;;;;8.07;4.97;;;12.60;99.90;;;;;;5090980;28;20047;-53
2022/10/17 00:55:28;;;;;;;7.55;5.10;;;12.60;99.90;;;;;;5091666;28;20060;-52
2022/10/17 00:57:55;;;;;;;7.95;5.00;;;12.60;99.90;;;;;;5091895;28;20020;-54
2022/10/17 01:00:21;;;;;;;8.32;5.18;;;12.60;99.90;;;;;;5093758;28;20016;-51
2022/10/17 01:02:47;;;;;;;7.78;5.00;;;12.60;99.90;;;;;;5081622;28;20059;-55
2022/10/17 01:05:14;;;;;;;7.75;5.25;;;12.60;99.90;;;;;;5087391;28;20036;-64
2022/10/17 01:07:41;;;;;;;8.18;4.90;;;12.60;99.90;;;;;;5091531;28;20049;-63
2022/10/17 01:10:07;;;;;;;9.48;5.70;;;12.60;99.90;;;;;;5091010;28;20042;-60
2022/10/17 01:12:47;;;;;;;10.05;5.65;;;12.70;99.90;;;;;;5091171;28;20063;-61
2022/10/17 01:15:25;;;;;;;7.47;5.53;;;12.60;99.90;;;;;;5090173;28;20020;-59
2022/10/17 01:18:09;;;;;;;8.07;5.55;;;12.60;99.90;;;;;;5092000;28;20660;-58
2022/10/17 01:21:05;;;;;;;7.72;5.35;;;12.60;99.90;;;;;;5091409;28;20130;-61
2022/10/17 01:23:49;;;;;;;8.65;5.10;;;12.60;99.90;;;;;;5089838;28;20032;-57
2022/10/17 01:26:21;;;;;;;8.20;6.43;;;12.60;99.90;;;;;;5091949;28;20039;-57
2022/10/17 01:28:59;;;;;;;9.63;5.75;;;12.60;99.90;;;;;;5091532;28;20134;-56
2022/10/17 01:31:36;;;;;;;7.15;5.05;;;12.60;99.90;;;;;;5091243;28;20020;-57
2022/10/17 01:34:11;;;;;;;7.95;5.82;;;12.60;99.90;;;;;;5091686;28;20480;-55
2022/10/17 01:36:39;;;;;;;9.48;5.32;;;12.60;99.90;;;;;;5089330;28;20035;-64
2022/10/17 01:39:36;;;;;;;8.48;5.88;;;12.60;99.90;;;;;;5091696;28;20421;-59
2022/10/17 01:42:26;;;;;;;8.32;5.95;;;12.50;99.90;;;;;;5088699;28;20048;-56
2022/10/17 01:44:55;;;;;;;9.20;5.07;;;12.50;99.90;;;;;;5090232;28;20040;-64
2022/10/17 01:47:25;;;;;;;7.95;4.95;;;12.50;99.90;;;;;;5091569;28;20032;-64
2022/10/17 01:49:53;;;;;;;8.90;5.53;;;12.50;99.90;;;;;;5091414;28;20032;-60
2022/10/17 01:52:42;;;;;;;7.75;5.43;;;12.50;99.90;;;;;;5085596;28;20380;-67
2022/10/17 01:55:15;;;;;;;6.85;5.03;;;12.50;99.90;;;;;;5070621;28;20477;-61
2022/10/17 01:57:46;;;;;;;7.28;4.68;;;12.50;99.90;;;;;;5070374;28;20025;-64
2022/10/17 02:00:17;;;;;;;7.68;4.82;;;12.50;99.90;;;;;;5071235;28;20078;-63
2022/10/17 02:02:45;;;;;;;8.25;5.38;;;12.50;99.90;;;;;;5075704;28;20545;-64
2022/10/17 02:05:11;;;;;;;7.70;5.32;;;12.50;99.90;;;;;;5090693;28;20016;-63
2022/10/17 02:07:39;;;;;;;8.43;5.63;;;12.50;99.90;;;;;;5090931;28;20032;-59
2022/10/17 02:10:14;;;;;;;8.45;5.60;;;12.50;99.90;;;;;;5091147;28;20024;-66
2022/10/17 02:12:53;;;;;;;7.88;5.32;;;12.50;99.90;;;;;;5089291;28;20016;-66
2022/10/17 02:15:43;;;;;;;8.05;5.00;;;12.50;99.90;;;;;;5091104;28;20077;-60
2022/10/17 02:18:39;;;;;;;9.70;5.20;;;12.50;99.90;;;;;;5091521;28;20032;-64
2022/10/17 02:21:17;;;;;;;7.60;5.00;;;12.60;99.90;;;;;;5091041;28;20088;-66
2022/10/17 02:23:59;;;;;;;7.22;5.00;;;12.60;99.90;;;;;;5090137;28;20046;-66
2022/10/17 02:26:30;;;;;;;7.78;5.05;;;12.60;99.90;;;;;;5090325;28;20082;-57
2022/10/17 02:29:18;;;;;;;7.25;5.07;;;12.60;99.90;;;;;;5071339;28;20035;-56
2022/10/17 02:31:43;;;;;;;9.43;5.70;;;12.60;99.90;;;;;;5070204;28;20060;-55
2022/10/17 02:34:18;;;;;;;9.55;5.43;;;12.60;99.90;;;;;;5083969;28;20365;-55
2022/10/17 02:36:49;;;;;;;8.40;5.22;;;12.60;99.90;;;;;;5090406;28;20046;-55
2022/10/17 02:39:16;;;;;;;9.98;6.00;;;12.60;99.90;;;;;;5090738;28;20031;-58
2022/10/17 02:41:43;;;;;;;9.40;5.90;;;12.60;99.90;;;;;;5088074;28;20491;-59
2022/10/17 02:44:09;;;;;;;11.93;6.20;;;12.60;99.90;;;;;;5077593;28;20033;-52
2022/10/17 02:46:37;;;;;;;9.90;5.70;;;12.60;99.90;;;;;;5069723;28;20124;-58
2022/10/17 02:49:35;;;;;;;8.77;5.07;;;12.60;99.90;;;;;;5069000;28;20029;-51
2022/10/17 02:52:10;;;;;;;6.95;4.53;;;12.60;99.90;;;;;;5062319;28;20090;-51
2022/10/17 02:54:50;;;;;;;7.95;4.75;;;12.60;99.90;;;;;;5069864;28;20020;-53
2022/10/17 02:57:37;;;;;;;7.60;5.07;;;12.50;99.90;;;;;;5070426;28;20040;-53
2022/10/17 03:00:06;;;;;;;9.57;4.97;;;12.50;99.90;;;;;;5070328;28;20024;-52
2022/10/17 03:02:58;;;;;;;8.75;4.93;;;12.50;99.90;;;;;;5069239;28;20024;-56
2022/10/17 03:05:28;;;;;;;8.30;4.63;;;12.50;99.90;;;;;;5088416;28;20048;-54
2022/10/17 03:07:55;;;;;;;7.90;4.63;;;12.50;99.90;;;;;;5088901;28;20020;-56
2022/10/17 03:10:22;;;;;;;7.90;4.80;;;12.50;99.90;;;;;;5090612;28;20077;-61
2022/10/17 03:12:48;;;;;;;9.02;5.32;;;12.60;99.90;;;;;;5089440;28;20020;-59
2022/10/17 03:15:13;;;;;;;7.03;4.35;;;12.60;99.90;;;;;;5079731;28;20024;-59
2022/10/17 03:17:39;;;;;;;8.75;4.50;;;12.70;99.90;;;;;;5091042;28;20115;-64
2022/10/17 03:20:06;;;;;;;9.63;4.40;;;12.70;99.90;;;;;;5094409;28;20094;-57
2022/10/17 03:22:32;;;;;;;7.78;4.97;;;12.70;99.90;;;;;;5093488;28;20035;-61
2022/10/17 03:24:58;;;;;;;9.10;4.57;;;12.70;99.90;;;;;;5096455;28;20032;-63
2022/10/17 03:27:23;;;;;;;8.05;4.70;;;12.80;99.90;;;;;;5094184;28;20035;-65
2022/10/17 03:29:49;;;;;;;7.75;4.72;;;12.70;99.90;;;;;;5093063;28;20848;-66
2022/10/17 03:32:14;;;;;;;8.32;5.10;;;12.70;99.90;;;;;;5093852;28;20532;-63
2022/10/17 03:34:40;;;;;;;7.05;4.13;;;12.70;99.90;;;;;;5075018;28;20385;-63
2022/10/17 03:37:06;;;;;;;8.98;4.55;;;12.70;99.90;;;;;;5074285;28;20099;-65
2022/10/17 03:39:31;;;;;;;9.27;4.95;;;12.70;99.90;;;;;;5092237;28;20103;-66
2022/10/17 03:41:57;;;;;;;8.45;4.80;;;12.80;99.90;;;;;;5093802;28;20107;-66
2022/10/17 03:44:23;;;;;;;9.40;5.40;;;12.80;99.90;;;;;;5081879;28;20031;-59
2022/10/17 03:46:48;;;;;;;15.68;8.50;;;12.80;99.90;;;;;;5073278;28;20040;-63
2022/10/17 03:49:14;;;;;;;23.40;12.73;;;12.90;99.90;;;;;;5072900;28;20017;-63
2022/10/17 03:51:39;;;;;;;28.90;16.77;;;13.00;99.90;;;;;;5093468;28;20032;-67
2022/10/17 03:54:05;;;;;;;27.80;17.30;;;13.00;99.90;;;;;;5091288;28;20028;-61
2022/10/17 03:56:30;;;;;;;33.13;21.60;;;13.10;99.90;;;;;;5093903;28;20055;-59
2022/10/17 03:58:56;;;;;;;32.70;19.73;;;13.20;99.90;;;;;;5092254;28;20361;-62
2022/10/17 04:01:22;;;;;;;27.17;18.60;;;13.30;99.90;;;;;;5093208;28;20161;-65
2022/10/17 04:03:50;;;;;;;26.45;17.55;;;13.30;99.90;;;;;;5092732;28;20020;-63
2022/10/17 04:06:15;;;;;;;26.65;17.95;;;13.40;99.90;;;;;;5093585;28;20111;-65
2022/10/17 04:08:41;;;;;;;27.33;16.17;;;13.50;99.90;;;;;;5096549;28;20157;-66
2022/10/17 04:11:07;;;;;;;28.80;18.15;;;13.60;99.90;;;;;;5113499;28;20109;-65
2022/10/17 04:13:34;;;;;;;27.98;19.15;;;13.60;99.90;;;;;;5100227;28;20027;-65
2022/10/17 04:16:06;;;;;;;26.23;18.45;;;13.70;99.90;;;;;;5093016;28;20024;-66
2022/10/17 04:18:32;;;;;;;34.80;25.25;;;13.80;99.90;;;;;;5097321;28;20164;-66
2022/10/17 04:21:01;;;;;;;26.40;19.10;;;13.80;99.90;;;;;;5113626;28;20097;-66
2022/10/17 04:23:27;;;;;;;25.33;17.25;;;13.80;99.90;;;;;;5113037;28;20030;-62
2022/10/17 04:25:59;;;;;;;27.23;18.48;;;13.90;99.90;;;;;;5113196;28;20111;-64
2022/10/17 04:28:26;;;;;;;26.73;18.13;;;13.90;99.90;;;;;;5105501;28;20027;-67
2022/10/17 04:31:00;;;;;;;34.75;21.60;;;13.90;99.90;;;;;;5072144;28;20095;-65
2022/10/17 04:33:25;;;;;;;33.95;22.58;;;13.90;99.90;;;;;;5073007;28;20021;-66
2022/10/17 04:36:06;;;;;;;23.92;17.25;;;13.90;99.90;;;;;;5072407;28;20464;-66
2022/10/17 04:38:33;;;;;;;24.38;17.52;;;13.90;99.90;;;;;;5085897;28;20036;-65
2022/10/17 04:41:02;;;;;;;24.88;16.98;;;13.90;99.90;;;;;;5093387;28;20028;-65
2022/10/17 04:43:31;;;;;;;20.83;13.65;;;14.00;99.90;;;;;;5092310;28;20107;-56
2022/10/17 04:45:58;;;;;;;25.20;16.17;;;13.90;99.90;;;;;;5091833;28;20032;-55
2022/10/17 04:48:23;;;;;;;29.20;18.88;;;14.00;99.90;;;;;;5090533;28;20079;-54
2022/10/17 04:50:56;;;;;;;29.95;20.42;;;13.90;99.90;;;;;;5071910;28;20801;-56
2022/10/17 04:53:23;;;;;;;32.58;20.27;;;14.00;99.90;;;;;;5100774;28;20034;-52
2022/10/17 04:55:49;;;;;;;35.28;22.65;;;14.00;99.90;;;;;;5112363;28;20023;-55
2022/10/17 04:58:15;;;;;;;35.92;23.80;;;14.10;99.90;;;;;;5110321;28;20059;-55
2022/10/17 05:00:40;;;;;;;26.30;17.85;;;14.20;99.90;;;;;;5091943;28;20028;-55
2022/10/17 05:03:06;;;;;;;20.35;13.70;;;14.20;99.90;;;;;;5096289;28;20405;-60
2022/10/17 05:05:32;;;;;;;24.42;14.65;;;14.30;99.90;;;;;;5090079;28;20043;-55
2022/10/17 05:07:57;;;;;;;22.27;14.85;;;14.30;99.90;;;;;;5092998;28;20016;-51
2022/10/17 05:10:23;;;;;;;28.23;19.38;;;14.40;99.90;;;;;;5075511;28;20067;-64
2022/10/17 05:12:49;;;;;;;39.30;27.75;;;14.40;99.90;;;;;;5088009;28;20024;-58
2022/10/17 05:15:15;;;;;;;38.78;25.88;;;14.40;99.90;;;;;;5092852;28;20024;-55
2022/10/17 05:17:41;;;;;;;36.38;23.85;;;14.40;99.90;;;;;;5091609;28;20130;-65
2022/10/17 05:20:09;;;;;;;35.78;22.77;;;14.40;99.90;;;;;;5091706;28;20473;-61
2022/10/17 05:22:34;;;;;;;34.38;21.60;;;14.40;99.90;;;;;;5092972;28;20032;-64
2022/10/17 05:25:00;;;;;;;32.97;21.13;;;14.40;99.90;;;;;;5092934;28;20039;-59
2022/10/17 05:27:25;;;;;;;36.30;23.20;;;14.30;99.90;;;;;;5092179;28;20032;-54
2022/10/17 05:29:51;;;;;;;44.90;30.85;;;14.30;99.90;;;;;;5091240;28;20059;-57
2022/10/17 05:32:17;;;;;;;43.33;28.33;;;14.30;99.90;;;;;;5093185;28;20089;-62
2022/10/17 05:34:42;;;;;;;47.47;31.70;;;14.30;99.90;;;;;;5090949;28;20020;-63
2022/10/17 05:37:08;;;;;;;43.83;28.10;;;14.30;99.90;;;;;;5071787;28;20031;-61
2022/10/17 05:39:33;;;;;;;39.97;25.80;;;14.30;99.90;;;;;;5088685;28;20078;-62
2022/10/17 05:41:59;;;;;;;45.35;29.65;;;14.30;99.90;;;;;;5090635;28;20070;-62
2022/10/17 05:44:25;;;;;;;40.88;26.65;;;14.30;99.90;;;;;;5093792;28;20392;-62
2022/10/17 05:46:50;;;;;;;39.40;26.27;;;14.30;99.90;;;;;;5090975;28;20043;-63
2022/10/17 05:49:16;;;;;;;42.45;26.90;;;14.30;99.90;;;;;;5086144;28;20081;-61
2022/10/17 05:51:42;;;;;;;42.25;26.10;;;14.20;99.90;;;;;;5092436;28;20098;-56
2022/10/17 05:54:07;;;;;;;37.42;24.88;;;14.20;99.90;;;;;;5092658;28;20078;-64
2022/10/17 05:56:34;;;;;;;32.10;21.98;;;14.20;99.90;;;;;;5092183;28;20024;-56
2022/10/17 05:59:00;;;;;;;34.60;20.33;;;14.30;99.90;;;;;;5090210;28;20024;-63
2022/10/17 06:01:26;;;;;;;34.83;21.95;;;14.30;99.90;;;;;;5090894;28;20119;-56
2022/10/17 06:03:51;;;;;;;32.38;22.30;;;14.40;99.90;;;;;;5088714;28;20491;-59
2022/10/17 06:06:18;;;;;;;37.45;26.88;;;14.40;99.90;;;;;;5100884;28;20032;-62
2022/10/17 06:08:44;;;;;;;23.50;16.15;;;14.40;99.90;;;;;;5103873;28;20438;-58
2022/10/17 06:11:11;;;;;;;24.00;16.00;;;14.40;99.90;;;;;;5093755;28;20028;-55
2022/10/17 06:13:37;;;;;;;20.05;10.80;;;14.40;99.90;;;;;;5092003;28;20423;-55
2022/10/17 06:16:03;;;;;;;13.05;8.18;;;14.40;99.90;;;;;;5091728;28;20517;-61
2022/10/17 06:18:29;;;;;;;24.63;13.30;;;14.50;99.90;;;;;;5092767;28;20028;-58
2022/10/17 06:21:05;;;;;;;20.25;14.70;;;14.50;99.90;;;;;;5091596;28;20071;-60
2022/10/17 06:23:31;;;;;;;21.73;13.63;;;14.60;99.90;;;;;;5090803;28;20103;-62
2022/10/17 06:26:00;;;;;;;20.40;12.50;;;14.60;99.90;;;;;;5091729;28;20126;-60
2022/10/17 06:28:26;;;;;;;24.42;15.18;;;14.60;99.90;;;;;;5087531;28;20017;-60
2022/10/17 06:30:52;;;;;;;25.40;15.88;;;14.60;99.90;;;;;;5091727;28;20122;-58
2022/10/17 06:33:19;;;;;;;26.83;16.67;;;14.60;99.90;;;;;;5092234;28;20021;-65
2022/10/17 06:35:50;;;;;;;20.70;11.45;;;14.60;99.90;;;;;;5092302;28;20093;-62
2022/10/17 06:38:16;;;;;;;;;;;14.60;99.90;;;;;;5094309;28;20525;-55
2022/10/17 06:40:41;;;;;;;20.20;12.80;;;14.60;99.90;;;;;;5092753;28;19942;-63
2022/10/17 06:43:07;;;;;;;25.48;18.55;;;14.60;99.90;;;;;;5091315;28;20472;-56
2022/10/17 06:45:32;;;;;;;24.63;17.05;;;14.70;99.90;;;;;;5087225;28;20725;-57
2022/10/17 06:47:58;;;;;;;40.58;29.55;;;14.70;99.90;;;;;;5097640;28;20059;-58
2022/10/17 06:50:24;;;;;;;34.20;25.10;;;14.70;99.90;;;;;;5116127;28;20031;-57
2022/10/17 06:52:50;;;;;;;38.95;25.23;;;14.80;99.90;;;;;;5115343;28;20031;-56
2022/10/17 06:55:16;;;;;;;31.75;23.50;;;14.80;99.90;;;;;;5116202;28;20026;-57
2022/10/17 06:57:42;;;;;;;45.90;30.80;;;14.90;99.90;;;;;;5109881;28;20023;-50
2022/10/17 07:00:08;;;;;;;32.47;20.58;;;14.90;99.90;;;;;;5102426;28;20047;-57
2022/10/17 07:02:33;;;;;;;34.67;23.83;;;15.00;99.90;;;;;;5095708;28;20504;-58
2022/10/17 07:04:59;;;;;;;26.80;16.95;;;15.10;99.90;;;;;;5094755;28;20026;-55
2022/10/17 07:07:24;;;;;;;29.95;20.23;;;15.20;99.90;;;;;;5095425;28;20036;-57
2022/10/17 07:09:50;;;;;;;32.03;21.58;;;15.20;99.90;;;;;;5095587;28;20044;-56
2022/10/17 07:12:16;;;;;;;40.70;27.98;;;15.30;99.90;;;;;;5094760;28;20024;-56
2022/10/17 07:14:41;;;;;;;38.72;26.02;;;15.30;99.90;;;;;;5095826;28;20095;-57
2022/10/17 07:17:07;;;;;;;33.78;22.25;;;15.40;99.90;;;;;;5098032;28;20042;-57
2022/10/17 07:19:32;;;;;;;33.42;22.70;;;15.40;99.90;;;;;;5094912;28;20073;-55
2022/10/17 07:21:58;;;;;;;33.03;21.27;;;15.50;99.90;;;;;;5104294;28;20048;-57
2022/10/17 07:24:23;;;;;;;27.30;18.63;;;15.50;99.90;;;;;;5109300;28;20094;-58
2022/10/17 07:26:49;;;;;;;30.70;18.50;;;15.60;99.90;;;;;;5096304;28;20032;-58
2022/10/17 07:29:15;;;;;;;33.33;22.25;;;15.70;99.90;;;;;;5095322;28;20027;-56
2022/10/17 07:31:40;;;;;;;29.10;18.42;;;15.80;99.90;;;;;;5095079;28;20111;-52
2022/10/17 07:34:06;;;;;;;23.83;14.68;;;15.80;99.90;;;;;;5094488;28;20306;-56
2022/10/17 07:36:32;;;;;;;19.27;10.95;;;15.90;99.90;;;;;;5095054;28;20024;-56
2022/10/17 07:38:57;;;;;;;19.45;11.18;;;16.00;99.90;;;;;;5094829;28;20031;-57
2022/10/17 07:41:23;;;;;;;16.92;11.07;;;16.00;99.90;;;;;;5094505;28;20027;-56
2022/10/17 07:43:48;;;;;;;22.88;15.40;;;16.20;99.90;;;;;;5094854;28;20020;-56
2022/10/17 07:46:14;;;;;;;27.95;19.23;;;16.30;99.90;;;;;;5095066;28;20020;-55
2022/10/17 07:48:40;;;;;;;30.77;18.42;;;16.40;99.90;;;;;;5094412;28;20112;-57
2022/10/17 07:51:07;;;;;;;25.50;16.67;;;16.50;99.90;;;;;;5094887;28;20024;-55
2022/10/17 07:53:37;;;;;;;24.52;15.98;;;16.70;99.90;;;;;;5094954;28;20020;-53
2022/10/17 07:56:07;;;;;;;22.10;17.00;;;16.70;99.90;;;;;;5094049;28;20063;-56
2022/10/17 07:58:33;;;;;;;24.52;18.13;;;16.80;99.90;;;;;;5094613;28;20024;-65
2022/10/17 08:01:13;;;;;;;22.23;14.73;;;16.80;99.90;;;;;;5094106;28;20177;-63
2022/10/17 08:03:39;;;;;;;16.88;11.80;;;16.80;99.90;;;;;;5097707;28;20024;-61
2022/10/17 08:06:04;;;;;;;16.25;10.70;;;16.90;99.90;;;;;;5094738;28;20040;-65
2022/10/17 08:08:30;;;;;;;25.00;15.70;;;16.80;99.90;;;;;;5093930;28;20453;-58
2022/10/17 08:11:02;;;;;;;24.55;16.65;;;16.80;99.90;;;;;;5094494;28;20028;-55
2022/10/17 08:13:27;;;;;;;22.27;15.40;;;16.80;99.90;;;;;;5079564;28;20071;-56
2022/10/17 08:15:53;;;;;;;28.85;18.50;;;16.80;99.90;;;;;;5086389;28;20107;-58
2022/10/17 08:18:18;;;;;;;19.30;12.85;;;16.80;99.90;;;;;;5094099;28;20132;-54
2022/10/17 08:20:44;;;;;;;14.55;9.65;;;16.80;99.90;;;;;;5077893;28;20082;-57
2022/10/17 08:23:10;;;;;;;14.98;9.20;;;16.70;99.90;;;;;;5071427;28;20103;-55
2022/10/17 08:25:38;;;;;;;12.20;7.82;;;16.70;99.90;;;;;;5082250;28;20065;-55
2022/10/17 08:28:05;;;;;;;11.65;7.28;;;16.70;99.90;;;;;;5094321;28;20035;-54
2022/10/17 08:30:30;;;;;;;12.32;7.50;;;16.70;99.90;;;;;;5090319;28;20101;-61
2022/10/17 08:32:56;;;;;;;13.05;6.97;;;16.70;99.90;;;;;;5092798;28;20052;-56
2022/10/17 08:35:22;;;;;;;12.23;8.02;;;16.70;99.90;;;;;;5092236;28;20413;-57
2022/10/17 08:37:48;;;;;;;14.27;8.15;;;16.70;99.90;;;;;;5093508;28;20425;-57
2022/10/17 08:40:19;;;;;;;12.80;7.63;;;16.70;99.90;;;;;;5088772;28;20035;-57
2022/10/17 08:42:50;;;;;;;14.93;8.95;;;16.70;99.90;;;;;;5082835;28;20015;-50
2022/10/17 08:45:40;;;;;;;13.60;8.55;;;16.70;99.90;;;;;;5090285;28;20472;-55
2022/10/17 08:48:12;;;;;;;14.02;8.57;;;16.60;99.90;;;;;;5083744;28;20040;-56
2022/10/17 08:50:44;;;;;;;13.43;8.13;;;16.60;99.90;;;;;;5070046;28;20017;-57
2022/10/17 08:53:16;;;;;;;16.13;7.93;;;16.60;99.90;;;;;;5090801;28;20016;-61
2022/10/17 08:55:46;;;;;;;13.23;8.18;;;16.60;99.90;;;;;;5091841;28;20028;-63
2022/10/17 08:58:20;;;;;;;12.23;7.47;;;16.60;99.90;;;;;;5095311;28;20443;-60
2022/10/17 09:01:06;;;;;;;11.15;6.63;;;16.60;99.90;;;;;;5086251;28;20488;-60
2022/10/17 09:03:41;;;;;;;12.55;7.60;;;16.60;99.90;;;;;;5094217;28;20018;-58
2022/10/17 09:06:30;;;;;;;12.35;8.00;;;16.50;99.90;;;;;;5100252;28;20174;-58
2022/10/17 09:09:02;;;;;;;16.30;8.63;;;16.50;99.90;;;;;;5079307;28;20024;-60
2022/10/17 09:11:56;;;;;;;16.25;8.38;;;16.50;99.90;;;;;;5085054;28;20076;-59
2022/10/17 09:14:37;;;;;;;14.32;7.95;;;16.40;99.90;;;;;;5090002;28;20104;-57
2022/10/17 09:17:08;;;;;;;13.15;8.48;;;16.40;99.90;;;;;;5076834;28;20107;-64
2022/10/17 09:19:42;;;;;;;15.13;9.30;;;16.40;99.90;;;;;;5091196;28;20012;-59
2022/10/17 09:22:17;;;;;;;15.68;8.68;;;16.30;99.90;;;;;;5075346;28;20041;-60
2022/10/17 09:24:45;;;;;;;11.70;7.78;;;16.40;99.90;;;;;;5093422;28;20023;-60
2022/10/17 09:27:40;;;;;;;12.88;8.35;;;16.40;99.90;;;;;;5092079;28;20036;-59
2022/10/17 09:30:22;;;;;;;14.45;8.63;;;16.40;99.90;;;;;;5090513;28;20465;-64
2022/10/17 09:32:47;;;;;;;11.32;7.43;;;16.40;99.90;;;;;;5089731;28;20043;-64
2022/10/17 09:35:14;;;;;;;14.43;8.68;;;16.50;99.90;;;;;;5089426;28;20024;-63
2022/10/17 09:37:40;;;;;;;13.32;8.57;;;16.50;99.90;;;;;;5084654;28;20071;-61
2022/10/17 09:40:10;;;;;;;15.38;9.55;;;16.50;99.90;;;;;;5088145;28;20035;-63
2022/10/17 09:42:37;;;;;;;15.30;8.43;;;16.50;99.90;;;;;;5071457;28;20230;-58
2022/10/17 09:45:13;;;;;;;13.77;8.38;;;16.50;99.90;;;;;;5074095;28;20046;-59
2022/10/17 09:47:49;;;;;;;13.18;8.23;;;16.50;99.90;;;;;;5090921;28;20032;-59
2022/10/17 09:50:32;;;;;;;15.55;9.73;;;16.50;99.90;;;;;;5093778;28;20032;-63
2022/10/17 09:53:14;;;;;;;32.42;21.70;;;16.60;99.90;;;;;;5090830;28;20016;-60
2022/10/17 09:55:44;;;;;;;26.25;17.50;;;16.50;99.90;;;;;;5088984;28;20039;-59
2022/10/17 09:58:10;;;;;;;14.27;8.63;;;16.50;99.90;;;;;;5091041;28;20044;-56
2022/10/17 10:00:45;;;;;;;14.02;9.00;;;16.50;99.90;;;;;;5086649;28;20038;-64
2022/10/17 10:03:25;;;;;;;12.63;7.90;;;16.50;99.90;;;;;;5090472;28;20045;-60
2022/10/17 10:06:05;;;;;;;15.70;9.32;;;16.50;99.90;;;;;;5089550;28;20051;-55
2022/10/17 10:08:35;;;;;;;20.55;11.68;;;16.50;99.90;;;;;;5088544;28;20105;-57
2022/10/17 10:11:05;;;;;;;15.05;10.65;;;16.50;99.90;;;;;;5072085;28;20056;-58
2022/10/17 10:13:34;;;;;;;31.42;18.27;;;16.50;99.90;;;;;;5087540;28;20472;-53
2022/10/17 10:16:16;;;;;;;15.38;10.40;;;16.50;99.90;;;;;;5088892;28;20042;-58
2022/10/17 10:18:43;;;;;;;12.82;7.65;;;16.50;99.90;;;;;;5086864;28;20031;-62
2022/10/17 10:21:14;;;;;;;10.68;7.35;;;16.50;99.90;;;;;;5085432;28;20044;-60
2022/10/17 10:23:44;;;;;;;14.15;8.30;;;16.60;99.90;;;;;;5087418;28;20035;-55
2022/10/17 10:26:21;;;;;;;23.25;14.18;;;16.60;99.90;;;;;;5089635;28;20038;-59
2022/10/17 10:28:53;;;;;;;34.00;23.15;;;16.70;99.90;;;;;;5087504;28;20035;-63
2022/10/17 10:31:27;;;;;;;37.47;24.73;;;16.80;99.90;;;;;;5088033;28;20391;-56
2022/10/17 10:33:52;;;;;;;26.42;16.63;;;16.80;99.90;;;;;;5088758;28;20511;-59
2022/10/17 10:36:21;;;;;;;18.80;10.98;;;16.80;99.90;;;;;;5086437;28;20032;-57
2022/10/17 10:38:53;;;;;;;22.13;13.93;;;16.80;99.90;;;;;;5089423;28;20047;-59
2022/10/17 10:41:20;;;;;;;18.55;11.60;;;16.80;99.90;;;;;;5084054;28;20027;-58
2022/10/17 10:43:48;;;;;;;24.17;14.75;;;16.80;99.90;;;;;;5081927;28;20042;-55
2022/10/17 10:46:20;;;;;;;39.03;25.40;;;16.90;99.90;;;;;;5090398;28;20116;-60
2022/10/17 10:48:58;;;;;;;35.83;23.27;;;16.90;99.90;;;;;;5090454;28;20035;-63
2022/10/17 10:51:43;;;;;;;33.92;24.15;;;17.00;99.90;;;;;;5089256;28;20024;-67
2022/10/17 10:54:28;;;;;;;37.40;23.83;;;17.00;99.90;;;;;;5085733;28;20020;-56
2022/10/17 10:56:58;;;;;;;34.10;23.27;;;17.10;99.90;;;;;;5083625;28;20020;-59
2022/10/17 10:59:41;;;;;;;32.95;22.25;;;17.20;99.90;;;;;;5070062;28;20765;-56
2022/10/17 11:02:23;;;;;;;46.70;30.25;;;17.20;99.90;;;;;;5070413;28;20465;-60
2022/10/17 11:04:54;;;;;;;35.00;23.42;;;17.30;99.90;;;;;;5075312;28;20544;-67
2022/10/17 11:07:38;;;;;;;19.38;13.32;;;17.50;99.90;;;;;;5090236;28;20033;-58
2022/10/17 11:10:23;;;;;;;25.20;15.68;;;17.60;99.90;;;;;;5079522;28;20469;-56
2022/10/17 11:13:03;;;;;;;18.60;11.05;;;17.70;99.90;;;;;;5078388;28;20020;-64
2022/10/17 11:15:56;;;;;;;16.13;10.48;;;17.70;99.90;;;;;;5090398;28;20409;-58
2022/10/17 11:18:28;;;;;;;12.98;7.28;;;17.70;99.90;;;;;;5089632;28;20515;-58
2022/10/17 11:21:02;;;;;;;9.40;6.00;;;17.80;99.90;;;;;;5088841;28;20044;-58
2022/10/17 11:23:43;;;;;;;10.15;5.90;;;17.70;99.90;;;;;;5090074;28;20040;-59
2022/10/17 11:26:31;;;;;;;11.57;5.80;;;17.70;99.90;;;;;;5067575;28;20044;-58
2022/10/17 11:29:01;;;;;;;10.18;6.00;;;17.70;99.90;;;;;;5068326;28;20074;-61
2022/10/17 11:31:32;;;;;;;10.02;5.30;;;17.70;99.90;;;;;;5070015;28;20044;-60
2022/10/17 11:34:19;;;;;;;9.07;5.03;;;17.70;99.90;;;;;;5071163;28;20028;-64
2022/10/17 11:36:49;;;;;;;10.30;6.15;;;17.80;99.90;;;;;;5083435;28;20024;-59
2022/10/17 11:39:27;;;;;;;8.80;5.70;;;17.80;99.90;;;;;;5093395;28;20016;-62
2022/10/17 11:41:58;;;;;;;8.85;5.88;;;17.90;99.90;;;;;;5090728;28;20024;-60
2022/10/17 11:44:40;;;;;;;10.25;5.70;;;18.00;99.90;;;;;;5114753;28;20103;-62
2022/10/17 11:47:19;;;;;;;9.00;6.10;;;18.00;99.90;;;;;;5099820;27;20111;-65
2022/10/17 11:49:49;;;;;;;8.85;5.50;;;18.00;99.90;;;;;;5092783;28;20040;-62
2022/10/17 11:52:33;;;;;;;9.45;5.70;;;18.10;99.90;;;;;;5092207;28;20032;-66
2022/10/17 11:55:05;;;;;;;9.13;5.50;;;18.20;99.90;;;;;;5093170;28;20020;-67
2022/10/17 11:57:43;;;;;;;12.27;6.85;;;18.20;99.90;;;;;;5093817;28;20024;-65
2022/10/17 12:00:20;;;;;;;10.80;6.57;;;18.30;99.90;;;;;;5089881;28;20039;-69
2022/10/17 12:02:57;;;;;;;11.70;7.32;;;18.30;99.90;;;;;;5090292;28;20032;-61
2022/10/17 12:05:23;;;;;;;13.52;8.80;;;18.30;99.90;;;;;;5094566;28;20044;-63
2022/10/17 12:08:10;;;;;;;10.98;7.65;;;18.30;99.90;;;;;;5093690;28;20024;-65
2022/10/17 12:10:44;;;;;;;13.25;8.30;;;18.30;99.90;;;;;;5091359;28;20047;-68
2022/10/17 12:13:28;;;;;;;13.50;7.47;;;18.30;99.90;;;;;;5093126;28;20032;-65
2022/10/17 12:15:54;;;;;;;12.93;7.85;;;18.30;99.90;;;;;;5092505;28;20044;-63
2022/10/17 12:18:24;;;;;;;12.20;7.07;;;18.20;99.90;;;;;;5093619;28;20036;-61
2022/10/17 12:20:59;;;;;;;10.35;7.07;;;18.20;99.90;;;;;;5094162;28;20066;-64
2022/10/17 12:23:31;;;;;;;11.07;6.63;;;18.10;99.90;;;;;;5094780;28;20066;-69
2022/10/17 12:26:00;;;;;;;10.85;6.25;;;18.10;99.90;;;;;;5091442;28;20044;-65
2022/10/17 12:28:53;;;;;;;10.82;7.18;;;18.10;99.90;;;;;;5093118;28;20097;-68
2022/10/17 12:31:20;;;;;;;11.23;7.15;;;18.00;99.90;;;;;;5095676;28;20114;-60
2022/10/17 12:33:53;;;;;;;9.18;6.13;;;18.00;99.90;;;;;;5074943;28;20025;-64
2022/10/17 12:36:21;;;;;;;9.73;6.50;;;18.00;99.90;;;;;;5076847;28;20035;-66
2022/10/17 12:38:54;;;;;;;10.48;6.53;;;18.00;99.90;;;;;;5093790;28;20381;-69
2022/10/17 12:41:38;;;;;;;10.75;6.88;;;18.00;99.90;;;;;;5093387;28;20038;-67
2022/10/17 12:44:13;;;;;;;9.95;7.32;;;18.10;99.90;;;;;;5092926;28;20423;-62
2022/10/17 12:46:48;;;;;;;9.55;6.53;;;18.10;99.90;;;;;;5091530;28;20043;-62
2022/10/17 12:49:35;;;;;;;12.35;7.25;;;18.20;99.90;;;;;;5093671;28;20021;-68
2022/10/17 12:52:14;;;;;;;11.80;7.05;;;18.20;99.90;;;;;;5089716;28;20062;-65
2022/10/17 12:54:59;;;;;;;13.30;7.35;;;18.10;99.90;;;;;;5083659;28;20467;-67